sensor_id;sensor_type;location;lat;lon;timestamp;P1;durP1;ratioP1;P2;durP2;ratioP2
10452;SDS011;5274;51.992;8.518;2024-02-21T00:01:21;28.47;;;24.67;;
10452;SDS011;5274;51.992;8.518;2024-02-21T00:03:47;30.40;;;26.00;;
10452;SDS011;5274;51.992;8.518;2024-02-21T00:06:13;30.30;;;25.38;;
10452;SDS011;5274;51.992;8.518;2024-02-21T00:08:38;28.77;;;25.67;;
10452;SDS011;5274;51.992;8.518;2024-02-21T00:11:04;28.23;;;24.97;;
10452;SDS011;5274;51.992;8.518;2024-02-21T00:13:29;29.93;;;25.73;;
10452;SDS011;5274;51.992;8.518;2024-02-21T00:15:55;30.17;;;26.52;;
10452;SDS011;5274;51.992;8.518;2024-02-21T00:18:20;29.63;;;26.43;;
10452;SDS011;5274;51.992;8.518;2024-02-21T00:20:46;32.03;;;27.38;;
10452;SDS011;5274;51.992;8.518;2024-02-21T00:23:11;31.50;;;27.37;;
10452;SDS011;5274;51.992;8.518;2024-02-21T00:25:37;31.40;;;27.30;;
10452;SDS011;5274;51.992;8.518;2024-02-21T00:28:02;29.85;;;26.70;;
10452;SDS011;5274;51.992;8.518;2024-02-21T00:30:28;29.17;;;26.13;;
10452;SDS011;5274;51.992;8.518;2024-02-21T00:32:54;31.67;;;27.27;;
10452;SDS011;5274;51.992;8.518;2024-02-21T00:35:20;31.45;;;26.83;;
10452;SDS011;5274;51.992;8.518;2024-02-21T00:37:45;29.77;;;26.43;;
10452;SDS011;5274;51.992;8.518;2024-02-21T00:40:11;35.03;;;27.00;;
10452;SDS011;5274;51.992;8.518;2024-02-21T00:42:36;32.75;;;27.08;;
10452;SDS011;5274;51.992;8.518;2024-02-21T00:45:02;29.17;;;26.10;;
10452;SDS011;5274;51.992;8.518;2024-02-21T00:47:27;30.75;;;27.42;;
10452;SDS011;5274;51.992;8.518;2024-02-21T00:49:53;30.53;;;27.13;;
10452;SDS011;5274;51.992;8.518;2024-02-21T00:52:19;30.53;;;27.30;;
10452;SDS011;5274;51.992;8.518;2024-02-21T00:54:44;33.63;;;26.17;;
10452;SDS011;5274;51.992;8.518;2024-02-21T00:57:10;29.10;;;25.95;;
10452;SDS011;5274;51.992;8.518;2024-02-21T00:59:35;31.50;;;26.97;;
10452;SDS011;5274;51.992;8.518;2024-02-21T01:02:01;29.05;;;26.13;;
10452;SDS011;5274;51.992;8.518;2024-02-21T01:04:26;30.20;;;26.30;;
10452;SDS011;5274;51.992;8.518;2024-02-21T01:06:52;29.10;;;25.67;;
10452;SDS011;5274;51.992;8.518;2024-02-21T01:09:17;29.33;;;26.33;;
10452;SDS011;5274;51.992;8.518;2024-02-21T01:11:43;30.27;;;26.87;;
10452;SDS011;5274;51.992;8.518;2024-02-21T01:14:08;30.05;;;26.83;;
10452;SDS011;5274;51.992;8.518;2024-02-21T01:16:34;32.30;;;27.00;;
10452;SDS011;5274;51.992;8.518;2024-02-21T01:18:59;30.93;;;26.90;;
10452;SDS011;5274;51.992;8.518;2024-02-21T01:21:25;32.33;;;26.45;;
10452;SDS011;5274;51.992;8.518;2024-02-21T01:23:50;32.70;;;26.57;;
10452;SDS011;5274;51.992;8.518;2024-02-21T01:26:15;29.87;;;26.67;;
10452;SDS011;5274;51.992;8.518;2024-02-21T01:28:41;29.15;;;26.00;;
10452;SDS011;5274;51.992;8.518;2024-02-21T01:31:07;30.17;;;26.33;;
10452;SDS011;5274;51.992;8.518;2024-02-21T01:33:32;32.10;;;26.23;;
10452;SDS011;5274;51.992;8.518;2024-02-21T01:36:03;30.55;;;25.95;;
10452;SDS011;5274;51.992;8.518;2024-02-21T01:38:29;27.77;;;24.80;;
10452;SDS011;5274;51.992;8.518;2024-02-21T01:40:54;30.48;;;26.33;;
10452;SDS011;5274;51.992;8.518;2024-02-21T01:43:20;31.10;;;25.73;;
10452;SDS011;5274;51.992;8.518;2024-02-21T01:45:46;30.63;;;25.20;;
10452;SDS011;5274;51.992;8.518;2024-02-21T01:48:17;28.90;;;26.00;;
10452;SDS011;5274;51.992;8.518;2024-02-21T01:50:46;30.20;;;25.33;;
10452;SDS011;5274;51.992;8.518;2024-02-21T01:53:17;30.40;;;26.33;;
10452;SDS011;5274;51.992;8.518;2024-02-21T01:56:02;28.35;;;25.55;;
10452;SDS011;5274;51.992;8.518;2024-02-21T01:58:30;29.47;;;25.60;;
10452;SDS011;5274;51.992;8.518;2024-02-21T02:00:56;31.65;;;25.42;;
10452;SDS011;5274;51.992;8.518;2024-02-21T02:03:21;28.85;;;25.52;;
10452;SDS011;5274;51.992;8.518;2024-02-21T02:05:48;32.30;;;26.57;;
10452;SDS011;5274;51.992;8.518;2024-02-21T02:08:15;32.87;;;26.17;;
10452;SDS011;5274;51.992;8.518;2024-02-21T02:10:41;29.25;;;26.20;;
10452;SDS011;5274;51.992;8.518;2024-02-21T02:13:07;29.27;;;25.60;;
10452;SDS011;5274;51.992;8.518;2024-02-21T02:15:43;29.42;;;26.30;;
10452;SDS011;5274;51.992;8.518;2024-02-21T02:18:10;32.63;;;27.33;;
10452;SDS011;5274;51.992;8.518;2024-02-21T02:20:37;28.70;;;25.60;;
10452;SDS011;5274;51.992;8.518;2024-02-21T02:23:07;28.83;;;25.80;;
10452;SDS011;5274;51.992;8.518;2024-02-21T02:25:35;30.25;;;26.83;;
10452;SDS011;5274;51.992;8.518;2024-02-21T02:28:01;28.80;;;25.67;;
10452;SDS011;5274;51.992;8.518;2024-02-21T02:30:28;30.93;;;26.07;;
10452;SDS011;5274;51.992;8.518;2024-02-21T02:32:56;31.30;;;26.20;;
10452;SDS011;5274;51.992;8.518;2024-02-21T02:35:22;32.22;;;26.40;;
10452;SDS011;5274;51.992;8.518;2024-02-21T02:37:48;28.77;;;25.77;;
10452;SDS011;5274;51.992;8.518;2024-02-21T02:40:14;32.38;;;27.02;;
10452;SDS011;5274;51.992;8.518;2024-02-21T02:42:40;33.77;;;27.50;;
10452;SDS011;5274;51.992;8.518;2024-02-21T02:45:05;34.15;;;27.13;;
10452;SDS011;5274;51.992;8.518;2024-02-21T02:47:31;28.95;;;26.10;;
10452;SDS011;5274;51.992;8.518;2024-02-21T02:50:13;28.97;;;26.03;;
10452;SDS011;5274;51.992;8.518;2024-02-21T02:52:38;29.03;;;25.93;;
10452;SDS011;5274;51.992;8.518;2024-02-21T02:55:04;29.95;;;26.60;;
10452;SDS011;5274;51.992;8.518;2024-02-21T02:57:30;32.67;;;26.63;;
10452;SDS011;5274;51.992;8.518;2024-02-21T02:59:56;29.33;;;26.27;;
10452;SDS011;5274;51.992;8.518;2024-02-21T03:02:22;30.87;;;25.63;;
10452;SDS011;5274;51.992;8.518;2024-02-21T03:04:47;28.77;;;25.88;;
10452;SDS011;5274;51.992;8.518;2024-02-21T03:07:13;29.53;;;26.37;;
10452;SDS011;5274;51.992;8.518;2024-02-21T03:09:39;29.63;;;26.45;;
10452;SDS011;5274;51.992;8.518;2024-02-21T03:12:05;28.83;;;25.73;;
10452;SDS011;5274;51.992;8.518;2024-02-21T03:14:31;29.43;;;26.23;;
10452;SDS011;5274;51.992;8.518;2024-02-21T03:16:58;30.67;;;27.43;;
10452;SDS011;5274;51.992;8.518;2024-02-21T03:19:24;32.83;;;27.57;;
10452;SDS011;5274;51.992;8.518;2024-02-21T03:21:50;32.17;;;28.13;;
10452;SDS011;5274;51.992;8.518;2024-02-21T03:24:16;30.48;;;27.35;;
10452;SDS011;5274;51.992;8.518;2024-02-21T03:26:42;29.88;;;26.60;;
10452;SDS011;5274;51.992;8.518;2024-02-21T03:29:08;29.13;;;25.83;;
10452;SDS011;5274;51.992;8.518;2024-02-21T03:31:36;28.83;;;26.00;;
10452;SDS011;5274;51.992;8.518;2024-02-21T03:34:02;29.85;;;26.45;;
10452;SDS011;5274;51.992;8.518;2024-02-21T03:36:28;28.60;;;25.50;;
10452;SDS011;5274;51.992;8.518;2024-02-21T03:38:54;31.95;;;25.73;;
10452;SDS011;5274;51.992;8.518;2024-02-21T03:41:20;30.73;;;26.05;;
10452;SDS011;5274;51.992;8.518;2024-02-21T03:43:45;28.87;;;25.77;;
10452;SDS011;5274;51.992;8.518;2024-02-21T03:46:11;28.90;;;25.92;;
10452;SDS011;5274;51.992;8.518;2024-02-21T03:48:36;28.90;;;26.00;;
10452;SDS011;5274;51.992;8.518;2024-02-21T03:51:02;28.63;;;25.57;;
10452;SDS011;5274;51.992;8.518;2024-02-21T03:53:27;28.75;;;25.85;;
10452;SDS011;5274;51.992;8.518;2024-02-21T03:55:53;28.47;;;25.63;;
10452;SDS011;5274;51.992;8.518;2024-02-21T03:58:19;28.73;;;25.90;;
10452;SDS011;5274;51.992;8.518;2024-02-21T04:00:45;29.63;;;26.30;;
10452;SDS011;5274;51.992;8.518;2024-02-21T04:03:11;27.75;;;24.75;;
10452;SDS011;5274;51.992;8.518;2024-02-21T04:05:36;27.60;;;24.60;;
10452;SDS011;5274;51.992;8.518;2024-02-21T04:08:05;27.15;;;24.40;;
10452;SDS011;5274;51.992;8.518;2024-02-21T04:10:31;27.10;;;24.50;;
10452;SDS011;5274;51.992;8.518;2024-02-21T04:12:57;27.37;;;24.37;;
10452;SDS011;5274;51.992;8.518;2024-02-21T04:15:22;25.98;;;23.27;;
10452;SDS011;5274;51.992;8.518;2024-02-21T04:17:48;28.03;;;24.53;;
10452;SDS011;5274;51.992;8.518;2024-02-21T04:20:14;27.05;;;24.48;;
10452;SDS011;5274;51.992;8.518;2024-02-21T04:22:42;27.50;;;24.60;;
10452;SDS011;5274;51.992;8.518;2024-02-21T04:25:09;26.38;;;23.77;;
10452;SDS011;5274;51.992;8.518;2024-02-21T04:27:35;26.73;;;23.90;;
10452;SDS011;5274;51.992;8.518;2024-02-21T04:30:02;26.42;;;23.73;;
10452;SDS011;5274;51.992;8.518;2024-02-21T04:32:28;25.83;;;23.38;;
10452;SDS011;5274;51.992;8.518;2024-02-21T04:34:53;25.67;;;23.07;;
10452;SDS011;5274;51.992;8.518;2024-02-21T04:37:19;26.97;;;24.13;;
10452;SDS011;5274;51.992;8.518;2024-02-21T04:39:45;26.75;;;23.50;;
10452;SDS011;5274;51.992;8.518;2024-02-21T04:42:11;27.33;;;22.87;;
10452;SDS011;5274;51.992;8.518;2024-02-21T04:44:37;25.27;;;22.85;;
10452;SDS011;5274;51.992;8.518;2024-02-21T04:47:03;26.38;;;23.77;;
10452;SDS011;5274;51.992;8.518;2024-02-21T04:49:29;26.42;;;23.73;;
10452;SDS011;5274;51.992;8.518;2024-02-21T04:51:55;25.77;;;23.13;;
10452;SDS011;5274;51.992;8.518;2024-02-21T04:54:20;26.67;;;23.93;;
10452;SDS011;5274;51.992;8.518;2024-02-21T04:56:46;26.07;;;23.67;;
10452;SDS011;5274;51.992;8.518;2024-02-21T04:59:11;26.95;;;24.08;;
10452;SDS011;5274;51.992;8.518;2024-02-21T05:01:37;27.23;;;24.33;;
10452;SDS011;5274;51.992;8.518;2024-02-21T05:04:02;27.15;;;24.45;;
10452;SDS011;5274;51.992;8.518;2024-02-21T05:06:28;26.97;;;24.17;;
10452;SDS011;5274;51.992;8.518;2024-02-21T05:08:53;26.93;;;24.43;;
10452;SDS011;5274;51.992;8.518;2024-02-21T05:11:20;27.35;;;24.60;;
10452;SDS011;5274;51.992;8.518;2024-02-21T05:13:46;27.13;;;24.45;;
10452;SDS011;5274;51.992;8.518;2024-02-21T05:16:12;28.37;;;25.33;;
10452;SDS011;5274;51.992;8.518;2024-02-21T05:18:37;27.83;;;24.83;;
10452;SDS011;5274;51.992;8.518;2024-02-21T05:21:03;27.23;;;24.53;;
10452;SDS011;5274;51.992;8.518;2024-02-21T05:23:29;27.67;;;24.98;;
10452;SDS011;5274;51.992;8.518;2024-02-21T05:25:54;30.07;;;25.80;;
10452;SDS011;5274;51.992;8.518;2024-02-21T05:28:20;27.87;;;25.07;;
10452;SDS011;5274;51.992;8.518;2024-02-21T05:30:45;28.38;;;25.25;;
10452;SDS011;5274;51.992;8.518;2024-02-21T05:33:11;28.40;;;25.60;;
10452;SDS011;5274;51.992;8.518;2024-02-21T05:35:37;33.03;;;25.83;;
10452;SDS011;5274;51.992;8.518;2024-02-21T05:38:03;28.83;;;25.80;;
10452;SDS011;5274;51.992;8.518;2024-02-21T05:40:32;28.92;;;25.98;;
10452;SDS011;5274;51.992;8.518;2024-02-21T05:42:58;28.08;;;25.00;;
10452;SDS011;5274;51.992;8.518;2024-02-21T05:45:23;28.43;;;25.40;;
10452;SDS011;5274;51.992;8.518;2024-02-21T05:47:49;27.70;;;24.80;;
10452;SDS011;5274;51.992;8.518;2024-02-21T05:50:15;27.98;;;25.35;;
10452;SDS011;5274;51.992;8.518;2024-02-21T05:52:40;28.60;;;25.73;;
10452;SDS011;5274;51.992;8.518;2024-02-21T05:55:06;28.50;;;25.45;;
10452;SDS011;5274;51.992;8.518;2024-02-21T05:57:32;28.00;;;25.10;;
10452;SDS011;5274;51.992;8.518;2024-02-21T05:59:58;27.73;;;24.88;;
10452;SDS011;5274;51.992;8.518;2024-02-21T06:02:23;29.47;;;25.90;;
10452;SDS011;5274;51.992;8.518;2024-02-21T06:04:49;28.10;;;25.30;;
10452;SDS011;5274;51.992;8.518;2024-02-21T06:07:14;27.58;;;24.90;;
10452;SDS011;5274;51.992;8.518;2024-02-21T06:09:40;29.33;;;25.77;;
10452;SDS011;5274;51.992;8.518;2024-02-21T06:12:06;28.40;;;25.60;;
10452;SDS011;5274;51.992;8.518;2024-02-21T06:14:31;29.57;;;26.73;;
10452;SDS011;5274;51.992;8.518;2024-02-21T06:16:57;30.05;;;27.05;;
10452;SDS011;5274;51.992;8.518;2024-02-21T06:19:22;31.33;;;28.10;;
10452;SDS011;5274;51.992;8.518;2024-02-21T06:21:48;31.73;;;28.40;;
10452;SDS011;5274;51.992;8.518;2024-02-21T06:24:13;31.70;;;28.33;;
10452;SDS011;5274;51.992;8.518;2024-02-21T06:26:40;32.93;;;29.40;;
10452;SDS011;5274;51.992;8.518;2024-02-21T06:29:05;31.08;;;27.65;;
10452;SDS011;5274;51.992;8.518;2024-02-21T06:31:31;32.70;;;27.73;;
10452;SDS011;5274;51.992;8.518;2024-02-21T06:33:56;33.75;;;28.45;;
10452;SDS011;5274;51.992;8.518;2024-02-21T06:36:22;32.93;;;27.03;;
10452;SDS011;5274;51.992;8.518;2024-02-21T06:38:47;31.90;;;28.48;;
10452;SDS011;5274;51.992;8.518;2024-02-21T06:41:16;29.67;;;26.47;;
10452;SDS011;5274;51.992;8.518;2024-02-21T06:43:44;29.65;;;26.65;;
10452;SDS011;5274;51.992;8.518;2024-02-21T06:46:22;29.23;;;25.98;;
10452;SDS011;5274;51.992;8.518;2024-02-21T06:48:51;29.13;;;26.13;;
10452;SDS011;5274;51.992;8.518;2024-02-21T06:51:16;28.13;;;25.00;;
10452;SDS011;5274;51.992;8.518;2024-02-21T06:53:42;28.13;;;25.23;;
10452;SDS011;5274;51.992;8.518;2024-02-21T06:56:09;26.67;;;23.88;;
10452;SDS011;5274;51.992;8.518;2024-02-21T06:58:34;26.20;;;23.55;;
10452;SDS011;5274;51.992;8.518;2024-02-21T07:01:01;25.95;;;23.23;;
10452;SDS011;5274;51.992;8.518;2024-02-21T07:03:26;25.27;;;22.70;;
10452;SDS011;5274;51.992;8.518;2024-02-21T07:05:52;24.80;;;22.15;;
10452;SDS011;5274;51.992;8.518;2024-02-21T07:08:17;25.27;;;22.57;;
10452;SDS011;5274;51.992;8.518;2024-02-21T07:10:43;24.33;;;21.88;;
10452;SDS011;5274;51.992;8.518;2024-02-21T07:13:08;23.87;;;21.57;;
10452;SDS011;5274;51.992;8.518;2024-02-21T07:15:34;23.07;;;20.97;;
10452;SDS011;5274;51.992;8.518;2024-02-21T07:18:01;23.65;;;21.23;;
10452;SDS011;5274;51.992;8.518;2024-02-21T07:20:26;21.92;;;20.10;;
10452;SDS011;5274;51.992;8.518;2024-02-21T07:22:52;23.10;;;20.80;;
10452;SDS011;5274;51.992;8.518;2024-02-21T07:25:18;22.15;;;20.02;;
10452;SDS011;5274;51.992;8.518;2024-02-21T07:27:44;22.57;;;20.47;;
10452;SDS011;5274;51.992;8.518;2024-02-21T07:30:10;22.88;;;20.83;;
10452;SDS011;5274;51.992;8.518;2024-02-21T07:32:35;23.00;;;20.90;;
10452;SDS011;5274;51.992;8.518;2024-02-21T07:35:01;22.30;;;20.00;;
10452;SDS011;5274;51.992;8.518;2024-02-21T07:37:27;20.75;;;19.10;;
10452;SDS011;5274;51.992;8.518;2024-02-21T07:39:52;21.73;;;19.73;;
10452;SDS011;5274;51.992;8.518;2024-02-21T07:42:18;27.73;;;20.25;;
10452;SDS011;5274;51.992;8.518;2024-02-21T07:44:43;23.53;;;21.33;;
10452;SDS011;5274;51.992;8.518;2024-02-21T07:47:09;22.08;;;20.10;;
10452;SDS011;5274;51.992;8.518;2024-02-21T07:49:41;22.27;;;20.23;;
10452;SDS011;5274;51.992;8.518;2024-02-21T07:52:09;22.33;;;20.33;;
10452;SDS011;5274;51.992;8.518;2024-02-21T07:54:34;21.87;;;19.97;;
10452;SDS011;5274;51.992;8.518;2024-02-21T07:57:00;22.67;;;20.70;;
10452;SDS011;5274;51.992;8.518;2024-02-21T07:59:26;23.13;;;21.00;;
10452;SDS011;5274;51.992;8.518;2024-02-21T08:01:51;21.90;;;19.93;;
10452;SDS011;5274;51.992;8.518;2024-02-21T08:04:17;21.73;;;19.80;;
10452;SDS011;5274;51.992;8.518;2024-02-21T08:06:42;22.27;;;20.30;;
10452;SDS011;5274;51.992;8.518;2024-02-21T08:09:10;22.60;;;20.70;;
10452;SDS011;5274;51.992;8.518;2024-02-21T08:11:35;22.30;;;20.30;;
10452;SDS011;5274;51.992;8.518;2024-02-21T08:14:01;22.47;;;20.20;;
10452;SDS011;5274;51.992;8.518;2024-02-21T08:16:27;22.40;;;20.33;;
10452;SDS011;5274;51.992;8.518;2024-02-21T08:18:52;22.08;;;19.83;;
10452;SDS011;5274;51.992;8.518;2024-02-21T08:21:18;22.43;;;20.37;;
10452;SDS011;5274;51.992;8.518;2024-02-21T08:23:43;22.00;;;20.10;;
10452;SDS011;5274;51.992;8.518;2024-02-21T08:26:09;22.03;;;20.03;;
10452;SDS011;5274;51.992;8.518;2024-02-21T08:28:35;20.92;;;19.13;;
10452;SDS011;5274;51.992;8.518;2024-02-21T08:31:00;21.50;;;19.50;;
10452;SDS011;5274;51.992;8.518;2024-02-21T08:33:26;21.65;;;19.70;;
10452;SDS011;5274;51.992;8.518;2024-02-21T08:35:52;20.98;;;19.08;;
10452;SDS011;5274;51.992;8.518;2024-02-21T08:38:18;21.00;;;18.93;;
10452;SDS011;5274;51.992;8.518;2024-02-21T08:40:43;20.50;;;18.60;;
10452;SDS011;5274;51.992;8.518;2024-02-21T08:43:09;20.33;;;18.60;;
10452;SDS011;5274;51.992;8.518;2024-02-21T08:45:34;19.97;;;18.37;;
10452;SDS011;5274;51.992;8.518;2024-02-21T08:48:00;19.77;;;18.17;;
10452;SDS011;5274;51.992;8.518;2024-02-21T08:50:25;20.50;;;18.70;;
10452;SDS011;5274;51.992;8.518;2024-02-21T08:52:51;19.93;;;18.33;;
10452;SDS011;5274;51.992;8.518;2024-02-21T08:55:16;19.77;;;17.90;;
10452;SDS011;5274;51.992;8.518;2024-02-21T08:57:42;19.80;;;18.00;;
10452;SDS011;5274;51.992;8.518;2024-02-21T09:00:07;19.20;;;17.48;;
10452;SDS011;5274;51.992;8.518;2024-02-21T09:02:39;18.77;;;17.20;;
10452;SDS011;5274;51.992;8.518;2024-02-21T09:05:06;18.88;;;17.35;;
10452;SDS011;5274;51.992;8.518;2024-02-21T09:07:32;18.00;;;16.60;;
10452;SDS011;5274;51.992;8.518;2024-02-21T09:09:57;18.73;;;16.88;;
10452;SDS011;5274;51.992;8.518;2024-02-21T09:12:23;19.10;;;17.40;;
10452;SDS011;5274;51.992;8.518;2024-02-21T09:14:49;18.67;;;16.92;;
10452;SDS011;5274;51.992;8.518;2024-02-21T09:17:15;18.40;;;16.80;;
10452;SDS011;5274;51.992;8.518;2024-02-21T09:19:42;18.10;;;16.60;;
10452;SDS011;5274;51.992;8.518;2024-02-21T09:22:08;17.77;;;16.35;;
10452;SDS011;5274;51.992;8.518;2024-02-21T09:24:34;19.08;;;17.08;;
10452;SDS011;5274;51.992;8.518;2024-02-21T09:26:59;18.47;;;16.87;;
10452;SDS011;5274;51.992;8.518;2024-02-21T09:29:25;19.13;;;17.60;;
10452;SDS011;5274;51.992;8.518;2024-02-21T09:31:50;17.73;;;16.35;;
10452;SDS011;5274;51.992;8.518;2024-02-21T09:34:17;18.50;;;17.13;;
10452;SDS011;5274;51.992;8.518;2024-02-21T09:36:44;18.90;;;17.40;;
10452;SDS011;5274;51.992;8.518;2024-02-21T09:39:09;18.75;;;17.25;;
10452;SDS011;5274;51.992;8.518;2024-02-21T09:41:39;18.95;;;17.40;;
10452;SDS011;5274;51.992;8.518;2024-02-21T09:44:12;18.45;;;16.85;;
10452;SDS011;5274;51.992;8.518;2024-02-21T09:47:02;18.25;;;16.95;;
10452;SDS011;5274;51.992;8.518;2024-02-21T09:49:30;18.42;;;16.88;;
10452;SDS011;5274;51.992;8.518;2024-02-21T09:52:03;17.80;;;16.50;;
10452;SDS011;5274;51.992;8.518;2024-02-21T09:54:30;18.92;;;17.33;;
10452;SDS011;5274;51.992;8.518;2024-02-21T09:56:58;17.63;;;16.30;;
10452;SDS011;5274;51.992;8.518;2024-02-21T09:59:24;17.85;;;16.45;;
10452;SDS011;5274;51.992;8.518;2024-02-21T10:01:52;17.85;;;16.40;;
10452;SDS011;5274;51.992;8.518;2024-02-21T10:04:18;17.83;;;16.53;;
10452;SDS011;5274;51.992;8.518;2024-02-21T10:06:45;17.25;;;15.95;;
10452;SDS011;5274;51.992;8.518;2024-02-21T10:09:23;17.80;;;16.40;;
10452;SDS011;5274;51.992;8.518;2024-02-21T10:11:50;18.50;;;16.92;;
10452;SDS011;5274;51.992;8.518;2024-02-21T10:14:16;17.20;;;15.90;;
10452;SDS011;5274;51.992;8.518;2024-02-21T10:16:43;17.63;;;16.33;;
10452;SDS011;5274;51.992;8.518;2024-02-21T10:19:16;17.65;;;16.23;;
10452;SDS011;5274;51.992;8.518;2024-02-21T10:21:42;18.67;;;17.35;;
10452;SDS011;5274;51.992;8.518;2024-02-21T10:24:07;18.13;;;16.90;;
10452;SDS011;5274;51.992;8.518;2024-02-21T10:26:35;18.23;;;16.73;;
10452;SDS011;5274;51.992;8.518;2024-02-21T10:29:02;18.65;;;17.20;;
10452;SDS011;5274;51.992;8.518;2024-02-21T10:31:27;19.40;;;17.80;;
10452;SDS011;5274;51.992;8.518;2024-02-21T10:33:54;18.95;;;17.35;;
10452;SDS011;5274;51.992;8.518;2024-02-21T10:36:20;18.57;;;17.10;;
10452;SDS011;5274;51.992;8.518;2024-02-21T10:38:46;18.92;;;17.60;;
10452;SDS011;5274;51.992;8.518;2024-02-21T10:41:13;19.00;;;17.37;;
10452;SDS011;5274;51.992;8.518;2024-02-21T10:43:40;18.90;;;17.55;;
10452;SDS011;5274;51.992;8.518;2024-02-21T10:46:06;19.90;;;18.20;;
10452;SDS011;5274;51.992;8.518;2024-02-21T10:48:38;20.15;;;18.45;;
10452;SDS011;5274;51.992;8.518;2024-02-21T10:51:11;19.90;;;18.25;;
10452;SDS011;5274;51.992;8.518;2024-02-21T10:53:44;20.80;;;18.88;;
10452;SDS011;5274;51.992;8.518;2024-02-21T10:59:05;21.30;;;19.45;;
10452;SDS011;5274;51.992;8.518;2024-02-21T11:01:31;20.92;;;19.13;;
10452;SDS011;5274;51.992;8.518;2024-02-21T11:04:01;21.08;;;19.27;;
10452;SDS011;5274;51.992;8.518;2024-02-21T11:06:28;21.55;;;19.38;;
10452;SDS011;5274;51.992;8.518;2024-02-21T11:09:01;21.33;;;19.52;;
10452;SDS011;5274;51.992;8.518;2024-02-21T11:11:33;20.85;;;19.15;;
10452;SDS011;5274;51.992;8.518;2024-02-21T11:14:26;20.95;;;19.23;;
10452;SDS011;5274;51.992;8.518;2024-02-21T11:16:51;21.48;;;19.65;;
10452;SDS011;5274;51.992;8.518;2024-02-21T11:19:23;21.23;;;19.13;;
10452;SDS011;5274;51.992;8.518;2024-02-21T11:21:51;20.63;;;18.83;;
10452;SDS011;5274;51.992;8.518;2024-02-21T11:24:31;20.90;;;18.98;;
10452;SDS011;5274;51.992;8.518;2024-02-21T11:32:16;21.63;;;19.60;;
10452;SDS011;5274;51.992;8.518;2024-02-21T11:34:58;20.98;;;19.08;;
10452;SDS011;5274;51.992;8.518;2024-02-21T11:37:29;21.45;;;19.65;;
10452;SDS011;5274;51.992;8.518;2024-02-21T11:39:55;21.02;;;19.25;;
10452;SDS011;5274;51.992;8.518;2024-02-21T11:42:21;21.87;;;19.77;;
10452;SDS011;5274;51.992;8.518;2024-02-21T11:44:47;19.60;;;18.10;;
10452;SDS011;5274;51.992;8.518;2024-02-21T11:47:13;20.13;;;18.52;;
10452;SDS011;5274;51.992;8.518;2024-02-21T11:49:46;20.17;;;18.55;;
10452;SDS011;5274;51.992;8.518;2024-02-21T11:52:15;19.50;;;18.00;;
10452;SDS011;5274;51.992;8.518;2024-02-21T11:54:41;20.05;;;18.20;;
10452;SDS011;5274;51.992;8.518;2024-02-21T11:57:07;19.40;;;17.83;;
10452;SDS011;5274;51.992;8.518;2024-02-21T11:59:33;19.97;;;18.30;;
10452;SDS011;5274;51.992;8.518;2024-02-21T12:02:00;21.15;;;19.00;;
10452;SDS011;5274;51.992;8.518;2024-02-21T12:04:26;19.20;;;17.70;;
10452;SDS011;5274;51.992;8.518;2024-02-21T12:06:54;19.27;;;17.63;;
10452;SDS011;5274;51.992;8.518;2024-02-21T12:09:20;19.73;;;18.02;;
10452;SDS011;5274;51.992;8.518;2024-02-21T12:11:56;19.60;;;17.88;;
10452;SDS011;5274;51.992;8.518;2024-02-21T12:14:25;19.77;;;18.17;;
10452;SDS011;5274;51.992;8.518;2024-02-21T12:16:53;19.17;;;17.63;;
10452;SDS011;5274;51.992;8.518;2024-02-21T12:19:19;19.58;;;17.95;;
10452;SDS011;5274;51.992;8.518;2024-02-21T12:21:45;20.27;;;18.38;;
10452;SDS011;5274;51.992;8.518;2024-02-21T12:24:21;18.38;;;16.90;;
10452;SDS011;5274;51.992;8.518;2024-02-21T12:26:50;19.33;;;17.63;;
10452;SDS011;5274;51.992;8.518;2024-02-21T12:29:20;18.20;;;16.90;;
10452;SDS011;5274;51.992;8.518;2024-02-21T12:31:46;17.05;;;15.95;;
10452;SDS011;5274;51.992;8.518;2024-02-21T12:34:11;17.88;;;16.35;;
10452;SDS011;5274;51.992;8.518;2024-02-21T12:36:41;18.03;;;16.53;;
10452;SDS011;5274;51.992;8.518;2024-02-21T12:39:10;17.67;;;16.20;;
10452;SDS011;5274;51.992;8.518;2024-02-21T12:41:36;17.50;;;16.03;;
10452;SDS011;5274;51.992;8.518;2024-02-21T12:44:05;18.58;;;16.95;;
10452;SDS011;5274;51.992;8.518;2024-02-21T12:46:36;17.98;;;16.38;;
10452;SDS011;5274;51.992;8.518;2024-02-21T12:49:02;18.67;;;17.08;;
10452;SDS011;5274;51.992;8.518;2024-02-21T12:51:28;20.98;;;19.02;;
10452;SDS011;5274;51.992;8.518;2024-02-21T12:53:55;21.70;;;19.63;;
10452;SDS011;5274;51.992;8.518;2024-02-21T12:56:21;21.30;;;19.23;;
10452;SDS011;5274;51.992;8.518;2024-02-21T12:58:46;20.80;;;18.80;;
10452;SDS011;5274;51.992;8.518;2024-02-21T13:01:12;20.23;;;18.33;;
10452;SDS011;5274;51.992;8.518;2024-02-21T13:03:37;20.42;;;18.60;;
10452;SDS011;5274;51.992;8.518;2024-02-21T13:06:03;20.00;;;18.30;;
10452;SDS011;5274;51.992;8.518;2024-02-21T13:08:29;20.77;;;18.93;;
10452;SDS011;5274;51.992;8.518;2024-02-21T13:10:55;20.63;;;18.60;;
10452;SDS011;5274;51.992;8.518;2024-02-21T13:13:21;19.03;;;17.53;;
10452;SDS011;5274;51.992;8.518;2024-02-21T13:15:46;20.40;;;18.40;;
10452;SDS011;5274;51.992;8.518;2024-02-21T13:18:12;20.20;;;18.37;;
10452;SDS011;5274;51.992;8.518;2024-02-21T13:20:37;19.80;;;18.10;;
10452;SDS011;5274;51.992;8.518;2024-02-21T13:23:03;19.63;;;17.98;;
10452;SDS011;5274;51.992;8.518;2024-02-21T13:25:28;19.87;;;18.17;;
10452;SDS011;5274;51.992;8.518;2024-02-21T13:27:54;18.35;;;16.90;;
10452;SDS011;5274;51.992;8.518;2024-02-21T13:30:20;18.52;;;17.10;;
10452;SDS011;5274;51.992;8.518;2024-02-21T13:32:50;18.93;;;17.23;;
10452;SDS011;5274;51.992;8.518;2024-02-21T13:35:16;18.77;;;17.17;;
10452;SDS011;5274;51.992;8.518;2024-02-21T13:37:42;18.20;;;16.90;;
10452;SDS011;5274;51.992;8.518;2024-02-21T13:40:08;18.63;;;17.02;;
10452;SDS011;5274;51.992;8.518;2024-02-21T13:42:34;18.10;;;16.80;;
10452;SDS011;5274;51.992;8.518;2024-02-21T13:45:00;18.77;;;17.07;;
10452;SDS011;5274;51.992;8.518;2024-02-21T13:47:26;18.07;;;16.77;;
10452;SDS011;5274;51.992;8.518;2024-02-21T13:49:52;18.38;;;16.73;;
10452;SDS011;5274;51.992;8.518;2024-02-21T13:52:17;18.50;;;17.10;;
10452;SDS011;5274;51.992;8.518;2024-02-21T13:54:46;18.13;;;16.75;;
10452;SDS011;5274;51.992;8.518;2024-02-21T13:57:12;18.20;;;16.70;;
10452;SDS011;5274;51.992;8.518;2024-02-21T13:59:39;17.77;;;16.42;;
10452;SDS011;5274;51.992;8.518;2024-02-21T14:02:04;17.83;;;16.53;;
10452;SDS011;5274;51.992;8.518;2024-02-21T14:04:32;17.52;;;16.33;;
10452;SDS011;5274;51.992;8.518;2024-02-21T14:06:58;18.40;;;17.00;;
10452;SDS011;5274;51.992;8.518;2024-02-21T14:09:24;18.55;;;17.08;;
10452;SDS011;5274;51.992;8.518;2024-02-21T14:11:49;17.30;;;16.00;;
10452;SDS011;5274;51.992;8.518;2024-02-21T14:14:15;17.92;;;16.42;;
10452;SDS011;5274;51.992;8.518;2024-02-21T14:16:40;17.60;;;16.40;;
10452;SDS011;5274;51.992;8.518;2024-02-21T14:19:06;17.67;;;16.30;;
10452;SDS011;5274;51.992;8.518;2024-02-21T14:21:33;17.20;;;16.00;;
10452;SDS011;5274;51.992;8.518;2024-02-21T14:23:59;17.20;;;16.02;;
10452;SDS011;5274;51.992;8.518;2024-02-21T14:26:27;17.35;;;15.95;;
10452;SDS011;5274;51.992;8.518;2024-02-21T14:28:55;17.75;;;16.20;;
10452;SDS011;5274;51.992;8.518;2024-02-21T14:31:21;17.52;;;16.10;;
10452;SDS011;5274;51.992;8.518;2024-02-21T14:33:47;17.20;;;16.00;;
10452;SDS011;5274;51.992;8.518;2024-02-21T14:36:13;17.43;;;16.03;;
10452;SDS011;5274;51.992;8.518;2024-02-21T14:38:40;16.90;;;15.70;;